Time;durP1;ratioP1;P1;durP2;ratioP2;P2;SDS_P1;SDS_P2;PMS_P1;PMS_P2;Temp;Humidity;BMP_temperature;BMP_pressure;BME280_temperature;BME280_humidity;BME280_pressure;Samples;Min_cycle;Max_cycle;Signal;HPM_P1;HPM_P2
2024/04/22 00:02:20;;;;;;;;;;;;;;;2.26;100.00;96567.65;108379;1279;25384;-88
2024/04/22 00:04:48;;;;;;;;;;;;;;;2.26;100.00;96568.48;108313;1284;125024;-87
2024/04/22 00:07:14;;;;;;;;;;;;;;;2.27;100.00;96569.44;108390;1281;22620;-87
2024/04/22 00:09:40;;;;;;;;;;;;;;;2.27;100.00;96568.39;108330;1278;125117;-87
2024/04/22 00:12:07;;;;;;;;;;;;;;;2.27;100.00;96565.70;108433;1284;22720;-88
2024/04/22 00:14:33;;;;;;;;;;;;;;;2.28;100.00;96563.39;108468;1284;22509;-88
2024/04/22 00:17:00;;;;;;;;;;;;;;;2.29;100.00;96562.43;108300;1284;124785;-87
2024/04/22 00:19:26;;;;;;;;;;;;;;;2.30;100.00;96563.57;108421;1283;22513;-87
2024/04/22 00:21:52;;;;;;;;;;;;;;;2.30;100.00;96562.33;108290;1284;125113;-87
2024/04/22 00:24:19;;;;;;;;;;;;;;;2.31;100.00;96560.26;108454;1284;22519;-88
2024/04/22 00:26:45;;;;;;;;;;;;;;;2.29;100.00;96560.57;108312;1284;125253;-88
2024/04/22 00:29:11;;;;;;;;;;;;;;;2.27;100.00;96557.60;108396;1284;22712;-88
2024/04/22 00:31:38;;;;;;;;;;;;;;;2.29;100.00;96556.63;108388;1279;22527;-88
2024/04/22 00:34:04;;;;;;;;;;;;;;;2.30;100.00;96553.50;108314;1283;125253;-87
2024/04/22 00:36:30;;;;;;;;;;;;;;;2.28;100.00;96553.61;108377;1280;25207;-88
2024/04/22 00:38:56;;;;;;;;;;;;;;;2.28;100.00;96553.28;108377;1284;125172;-88
2024/04/22 00:41:25;;;;;;;;;;;;;;;2.29;100.00;96550.69;108403;1284;22504;-88
2024/04/22 00:43:51;;;;;;;;;;;;;;;2.26;100.00;96549.54;108435;1281;25267;-87
2024/04/22 00:46:17;;;;;;;;;;;;;;;2.24;100.00;96547.80;108361;1284;125005;-88
2024/04/22 00:48:44;;;;;;;;;;;;;;;2.22;100.00;96548.66;108389;1277;22533;-88
2024/04/22 00:51:10;;;;;;;;;;;;;;;2.22;100.00;96548.27;108353;1283;125145;-88
2024/04/22 00:53:36;;;;;;;;;;;;;;;2.19;100.00;96545.16;108410;1284;22539;-88
2024/04/22 00:56:03;;;;;;;;;;;;;;;2.18;100.00;96540.44;108445;1279;22512;-87
2024/04/22 00:58:29;;;;;;;;;;;;;;;2.17;100.00;96542.11;108364;1280;124899;-87
2024/04/22 01:00:56;;;;;;;;;;;;;;;2.17;100.00;96543.45;108400;1280;23606;-87
2024/04/22 01:03:22;;;;;;;;;;;;;;;2.17;100.00;96543.59;108299;1280;125154;-88
2024/04/22 01:05:48;;;;;;;;;;;;;;;2.19;100.00;96541.25;108382;1278;25205;-88
2024/04/22 01:08:15;;;;;;;;;;;;;;;2.19;100.00;96540.36;108491;1281;22499;-88
2024/04/22 01:10:41;;;;;;;;;;;;;;;2.16;100.00;96540.46;108269;1279;125189;-87
2024/04/22 01:13:07;;;;;;;;;;;;;;;2.14;100.00;96540.45;108456;1278;22555;-88
2024/04/22 01:15:34;;;;;;;;;;;;;;;2.14;100.00;96541.50;108340;1284;125077;-88
2024/04/22 01:18:00;;;;;;;;;;;;;;;2.15;100.00;96541.56;108447;1273;22573;-89
2024/04/22 01:20:26;;;;;;;;;;;;;;;2.14;100.00;96541.27;108482;1280;23811;-88
2024/04/22 01:22:53;;;;;;;;;;;;;;;2.14;100.00;96538.59;108248;1284;125731;-88
2024/04/22 01:25:19;;;;;;;;;;;;;;;2.13;100.00;96538.86;108460;1278;22507;-88
2024/04/22 01:27:45;;;;;;;;;;;;;;;2.14;100.00;96536.73;108365;1280;125365;-88
2024/04/22 01:30:11;;;;;;;;;;;;;;;2.16;100.00;96540.29;108397;1279;23675;-87
2024/04/22 01:32:38;;;;;;;;;;;;;;;2.13;100.00;96536.23;108338;1284;22530;-87
2024/04/22 01:35:04;;;;;;;;;;;;;;;2.12;100.00;96538.26;108286;1280;125000;-88
2024/04/22 01:37:30;;;;;;;;;;;;;;;2.10;100.00;96539.70;108445;1284;23091;-88
2024/04/22 01:39:57;;;;;;;;;;;;;;;2.09;100.00;96537.94;108363;1284;125080;-88
2024/04/22 01:42:24;;;;;;;;;;;;;;;2.08;100.00;96538.83;108416;1281;25265;-88
2024/04/22 01:44:50;;;;;;;;;;;;;;;2.09;100.00;96536.75;108359;1284;125239;-87
2024/04/22 01:47:16;;;;;;;;;;;;;;;2.09;100.00;96542.02;108447;1282;22560;-87
2024/04/22 01:49:43;;;;;;;;;;;;;;;2.06;100.00;96545.02;108475;1284;22534;-88
2024/04/22 01:52:09;;;;;;;;;;;;;;;2.04;100.00;96543.50;108330;1277;125025;-87
2024/04/22 01:54:35;;;;;;;;;;;;;;;2.02;100.00;96546.65;108472;1281;23254;-88
2024/04/22 01:57:02;;;;;;;;;;;;;;;1.99;100.00;96546.42;108319;1277;125144;-88
2024/04/22 01:59:28;;;;;;;;;;;;;;;1.95;100.00;96548.33;108468;1280;24171;-88
2024/04/22 02:01:54;;;;;;;;;;;;;;;1.92;100.00;96546.14;108384;1282;22512;-88
2024/04/22 02:04:20;;;;;;;;;;;;;;;1.91;100.00;96548.10;108358;1281;125069;-89
2024/04/22 02:06:47;;;;;;;;;;;;;;;1.90;100.00;96545.66;108361;1284;22522;-88
2024/04/22 02:09:13;;;;;;;;;;;;;;;1.89;100.00;96547.11;108258;1284;125164;-87
2024/04/22 02:11:39;;;;;;;;;;;;;;;1.88;100.00;96544.25;108359;1280;22473;-87
2024/04/22 02:14:05;;;;;;;;;;;;;;;1.91;100.00;96546.75;108332;1280;25423;-88
2024/04/22 02:16:32;;;;;;;;;;;;;;;1.91;100.00;96545.10;108319;1280;125039;-88
2024/04/22 02:18:59;;;;;;;;;;;;;;;1.90;100.00;96546.20;108480;1284;22937;-88
2024/04/22 02:21:28;;;;;;;;;;;;;;;1.87;100.00;96545.94;108218;1284;125459;-88
2024/04/22 02:23:56;;;;;;;;;;;;;;;1.83;100.00;96549.11;108308;1280;24210;-88
2024/04/22 02:26:22;;;;;;;;;;;;;;;1.82;100.00;96550.61;108476;1274;22625;-88
2024/04/22 02:28:52;;;;;;;;;;;;;;;1.82;100.00;96548.54;108359;1277;124907;-88
2024/04/22 02:31:19;;;;;;;;;;;;;;;1.80;100.00;96551.25;108358;1284;23186;-87
2024/04/22 02:33:46;;;;;;;;;;;;;;;1.80;100.00;96551.77;108297;1280;125639;-87
2024/04/22 02:36:13;;;;;;;;;;;;;;;1.80;100.00;96552.58;108376;1284;22948;-88
2024/04/22 02:38:39;;;;;;;;;;;;;;;1.80;100.00;96552.60;108387;1284;25205;-87
2024/04/22 02:41:05;;;;;;;;;;;;;;;1.78;100.00;96551.88;108437;1284;22559;-88
2024/04/22 02:43:31;;;;;;;;;;;;;;;1.75;100.00;96551.25;108349;1279;22926;-88
2024/04/22 02:45:58;;;;;;;;;;;;;;;1.72;100.00;96557.67;108377;1277;124914;-88
2024/04/22 02:48:24;;;;;;;;;;;;;;;1.71;100.00;96554.02;108445;1273;22543;-88
2024/04/22 02:50:50;;;;;;;;;;;;;;;1.69;100.00;96559.16;108342;1283;125612;-88
2024/04/22 02:53:16;;;;;;;;;;;;;;;1.68;100.00;96556.14;108404;1284;22650;-88
2024/04/22 02:55:42;;;;;;;;;;;;;;;1.68;100.00;96554.11;108386;1280;22626;-88
2024/04/22 02:58:09;;;;;;;;;;;;;;;1.64;100.00;96554.58;108274;1284;124946;-87
2024/04/22 03:00:35;;;;;;;;;;;;;;;1.63;100.00;96552.45;108452;1284;23613;-88
2024/04/22 03:03:01;;;;;;;;;;;;;;;1.63;100.00;96561.14;108372;1282;125376;-88
2024/04/22 03:05:27;;;;;;;;;;;;;;;1.62;100.00;96559.52;108448;1279;22542;-88
2024/04/22 03:07:54;;;;;;;;;;;;;;;1.60;100.00;96558.34;108368;1276;22531;-87
2024/04/22 03:10:20;;;;;;;;;;;;;;;1.61;100.00;96558.21;108232;1280;124997;-88
2024/04/22 03:12:48;;;;;;;;;;;;;;;1.60;100.00;96559.66;108379;1284;22528;-88
2024/04/22 03:15:14;;;;;;;;;;;;;;;1.56;100.00;96566.35;108353;1284;125370;-88
2024/04/22 03:17:41;;;;;;;;;;;;;;;1.53;100.00;96565.69;108452;1276;22537;-88
2024/04/22 03:20:07;;;;;;;;;;;;;;;1.51;100.00;96568.55;108362;1280;22973;-88
2024/04/22 03:22:36;;;;;;;;;;;;;;;1.49;100.00;96567.67;108265;1281;124986;-88
2024/04/22 03:25:05;;;;;;;;;;;;;;;1.48;100.00;96567.31;108287;1273;22563;-88
2024/04/22 03:27:31;;;;;;;;;;;;;;;1.45;100.00;96573.17;108322;1284;124957;-87
2024/04/22 03:29:57;;;;;;;;;;;;;;;1.38;100.00;96574.35;108343;1284;22540;-87
2024/04/22 03:32:24;;;;;;;;;;;;;;;1.36;100.00;96576.98;108392;1278;22557;-88
2024/04/22 03:34:50;;;;;;;;;;;;;;;1.35;100.00;96577.35;108247;1283;124977;-88
2024/04/22 03:37:16;;;;;;;;;;;;;;;1.35;100.00;96584.89;108345;1273;23006;-88
2024/04/22 03:39:42;;;;;;;;;;;;;;;1.33;100.00;96582.80;108345;1266;124938;-88
2024/04/22 03:42:09;;;;;;;;;;;;;;;1.34;100.00;96588.90;108425;1284;22526;-87
2024/04/22 03:44:35;;;;;;;;;;;;;;;1.33;100.00;96590.33;108338;1280;22541;-87
2024/04/22 03:49:56;;;;;;;;;;;;;;;1.33;100.00;96597.13;108440;1284;25420;-87
2024/04/22 03:52:22;;;;;;;;;;;;;;;1.31;100.00;96599.71;108291;1284;124992;-88
2024/04/22 03:54:49;;;;;;;;;;;;;;;1.31;100.00;96603.09;108359;1280;22543;-88
2024/04/22 03:57:15;;;;;;;;;;;;;;;1.34;100.00;96604.45;108253;1284;125108;-88
2024/04/22 03:59:41;;;;;;;;;;;;;;;1.32;100.00;96608.20;108397;1284;22622;-88
2024/04/22 04:02:07;;;;;;;;;;;;;;;1.29;100.00;96611.11;108424;1279;22513;-88
2024/04/22 04:04:34;;;;;;;;;;;;;;;1.25;100.00;96608.73;108364;1284;124939;-87
2024/04/22 04:07:00;;;;;;;;;;;;;;;1.19;100.00;96609.95;108370;1284;22558;-88
2024/04/22 04:09:26;;;;;;;;;;;;;;;1.16;100.00;96612.92;108371;1278;125024;-87
2024/04/22 04:11:53;;;;;;;;;;;;;;;1.14;100.00;96612.45;108382;1283;22522;-88
2024/04/22 04:14:19;;;;;;;;;;;;;;;1.11;100.00;96614.70;108395;1284;22521;-88
2024/04/22 04:16:45;;;;;;;;;;;;;;;1.10;100.00;96617.30;108313;1284;124944;-87
2024/04/22 04:19:12;;;;;;;;;;;;;;;1.09;100.00;96619.63;108413;1279;22506;-87
2024/04/22 04:21:38;;;;;;;;;;;;;;;1.06;100.00;96616.78;108377;1278;125108;-88
2024/04/22 04:24:04;;;;;;;;;;;;;;;1.01;100.00;96625.08;108444;1278;25261;-87
2024/04/22 04:26:30;;;;;;;;;;;;;;;0.97;100.00;96624.17;108470;1284;22912;-88
2024/04/22 04:28:57;;;;;;;;;;;;;;;0.97;100.00;96625.86;108372;1276;124777;-87
2024/04/22 04:31:23;;;;;;;;;;;;;;;0.98;100.00;96626.96;108415;1277;22528;-88
2024/04/22 04:33:50;;;;;;;;;;;;;;;0.99;100.00;96631.91;108356;1284;125415;-87
2024/04/22 04:36:17;;;;;;;;;;;;;;;0.97;100.00;96634.23;108486;1284;22513;-87
2024/04/22 04:38:43;;;;;;;;;;;;;;;0.94;100.00;96637.02;108366;1282;125105;-88
2024/04/22 04:41:10;;;;;;;;;;;;;;;0.86;100.00;96640.52;108438;1281;22631;-87
2024/04/22 04:43:36;;;;;;;;;;;;;;;0.80;100.00;96644.70;108459;1280;23358;-88
2024/04/22 04:46:02;;;;;;;;;;;;;;;0.82;100.00;96649.88;108372;1284;124947;-88
2024/04/22 04:48:29;;;;;;;;;;;;;;;0.83;100.00;96646.89;108472;1284;22533;-87
2024/04/22 04:50:55;;;;;;;;;;;;;;;0.80;100.00;96651.19;108298;1280;126914;-87
2024/04/22 04:53:21;;;;;;;;;;;;;;;0.80;100.00;96651.16;108438;1284;24219;-87
2024/04/22 04:55:48;;;;;;;;;;;;;;;0.82;100.00;96654.42;108458;1284;22521;-87
2024/04/22 04:58:14;;;;;;;;;;;;;;;0.80;100.00;96658.53;108340;1278;125161;-88
2024/04/22 05:00:40;;;;;;;;;;;;;;;0.77;100.00;96663.53;108350;1280;22510;-87
2024/04/22 05:03:07;;;;;;;;;;;;;;;0.78;100.00;96660.89;108244;1282;125229;-88
2024/04/22 05:05:33;;;;;;;;;;;;;;;0.80;100.00;96661.39;108377;1277;22546;-88
2024/04/22 05:07:59;;;;;;;;;;;;;;;0.80;100.00;96663.45;108450;1277;22945;-87
2024/04/22 05:10:26;;;;;;;;;;;;;;;0.78;100.00;96665.34;108357;1277;125028;-87
2024/04/22 05:12:52;;;;;;;;;;;;;;;0.76;100.00;96665.16;108398;1284;22496;-87
2024/04/22 05:15:19;;;;;;;;;;;;;;;0.75;100.00;96665.58;108628;1277;125166;-87
2024/04/22 05:17:45;;;;;;;;;;;;;;;0.76;100.00;96668.73;108454;1284;22536;-87
2024/04/22 05:20:11;;;;;;;;;;;;;;;0.78;100.00;96666.52;108430;1277;23201;-87
2024/04/22 05:22:37;;;;;;;;;;;;;;;0.74;100.00;96669.70;108380;1284;124979;-87
2024/04/22 05:25:03;;;;;;;;;;;;;;;0.68;100.00;96669.88;108440;1281;22545;-87
2024/04/22 05:27:30;;;;;;;;;;;;;;;0.63;100.00;96671.87;108372;1284;127275;-88
2024/04/22 05:29:56;;;;;;;;;;;;;;;0.66;100.00;96678.20;108423;1276;22505;-88
2024/04/22 05:32:23;;;;;;;;;;;;;;;0.68;100.00;96682.44;108439;1284;22522;-88
2024/04/22 05:37:34;;;;;;;;;;;;;;;0.66;100.00;96684.85;108472;1281;22541;-87
2024/04/22 05:40:00;;;;;;;;;;;;;;;0.65;100.00;96687.97;108356;1276;125044;-88
2024/04/22 05:42:27;;;;;;;;;;;;;;;0.64;100.00;96694.68;108475;1272;22528;-87
2024/04/22 05:44:53;;;;;;;;;;;;;;;0.64;100.00;96693.83;108359;1278;125140;-87
2024/04/22 05:47:19;;;;;;;;;;;;;;;0.65;100.00;96696.98;108414;1277;23169;-87
2024/04/22 05:49:45;;;;;;;;;;;;;;;0.67;100.00;96699.59;108461;1282;24189;-88
2024/04/22 05:52:13;;;;;;;;;;;;;;;0.68;100.00;96701.02;108344;1284;125055;-87
2024/04/22 05:54:40;;;;;;;;;;;;;;;0.68;100.00;96696.77;108376;1284;22541;-87
2024/04/22 05:57:06;;;;;;;;;;;;;;;0.68;100.00;96698.99;108276;1281;125156;-87
2024/04/22 05:59:32;;;;;;;;;;;;;;;0.70;100.00;96701.23;108343;1283;22522;-87
2024/04/22 06:01:59;;;;;;;;;;;;;;;0.73;100.00;96699.80;108374;1284;23787;-87
2024/04/22 06:04:25;;;;;;;;;;;;;;;0.77;100.00;96704.81;108271;1280;124948;-87
2024/04/22 06:06:51;;;;;;;;;;;;;;;0.77;100.00;96706.83;108354;1284;22506;-88
2024/04/22 06:09:22;;;;;;;;;;;;;;;0.78;100.00;96708.59;108373;1278;125898;-88
2024/04/22 06:11:48;;;;;;;;;;;;;;;0.80;100.00;96712.92;108488;1284;22550;-87
2024/04/22 06:14:15;;;;;;;;;;;;;;;0.78;100.00;96714.73;108364;1280;25224;-88
2024/04/22 06:16:41;;;;;;;;;;;;;;;0.79;100.00;96720.62;108293;1280;125179;-88
2024/04/22 06:19:08;;;;;;;;;;;;;;;0.79;100.00;96721.55;108424;1280;24221;-87
2024/04/22 06:21:34;;;;;;;;;;;;;;;0.79;100.00;96723.88;108402;1278;125111;-87
2024/04/22 06:24:01;;;;;;;;;;;;;;;0.81;100.00;96725.31;108487;1284;22527;-87
2024/04/22 06:26:27;;;;;;;;;;;;;;;0.86;100.00;96727.30;108449;1278;22542;-87
2024/04/22 06:28:53;;;;;;;;;;;;;;;0.92;100.00;96729.46;108199;1278;125040;-88
2024/04/22 06:31:20;;;;;;;;;;;;;;;0.90;100.00;96731.82;108359;1283;22544;-88
2024/04/22 06:33:46;;;;;;;;;;;;;;;0.90;100.00;96728.89;108344;1277;125184;-88
2024/04/22 06:36:13;;;;;;;;;;;;;;;0.90;100.00;96732.30;108428;1284;22501;-87
2024/04/22 06:38:39;;;;;;;;;;;;;;;0.92;100.00;96730.27;108353;1283;22575;-88
2024/04/22 06:41:06;;;;;;;;;;;;;;;0.96;100.00;96734.93;108293;1277;22524;-88
2024/04/22 06:43:32;;;;;;;;;;;;;;;0.99;100.00;96736.05;108364;1278;22733;-88
2024/04/22 06:45:58;;;;;;;;;;;;;;;1.01;100.00;96735.41;108261;1280;125064;-88
2024/04/22 06:48:24;;;;;;;;;;;;;;;1.03;100.00;96739.73;108436;1281;22523;-88
2024/04/22 06:50:51;;;;;;;;;;;;;;;1.06;100.00;96744.63;108320;1280;125208;-88
2024/04/22 06:53:19;;;;;;;;;;;;;;;1.06;100.00;96745.48;108403;1284;22578;-88
2024/04/22 06:55:45;;;;;;;;;;;;;;;1.06;100.00;96744.77;108455;1278;22599;-87
2024/04/22 06:58:12;;;;;;;;;;;;;;;1.06;100.00;96747.66;108308;1284;125319;-88
2024/04/22 07:00:38;;;;;;;;;;;;;;;1.06;100.00;96750.20;108366;1281;22482;-88
2024/04/22 07:03:04;;;;;;;;;;;;;;;1.05;100.00;96754.05;108268;1280;125516;-88
2024/04/22 07:05:30;;;;;;;;;;;;;;;1.06;100.00;96756.32;108383;1279;22503;-88
2024/04/22 07:07:57;;;;;;;;;;;;;;;1.11;100.00;96759.39;108449;1277;22490;-88
2024/04/22 07:10:23;;;;;;;;;;;;;;;1.15;100.00;96763.05;108364;1278;125051;-87
2024/04/22 07:12:50;;;;;;;;;;;;;;;1.17;100.00;96764.56;108457;1277;22528;-88
2024/04/22 07:15:18;;;;;;;;;;;;;;;1.20;100.00;96766.19;108656;1279;125381;-88
2024/04/22 07:17:45;;;;;;;;;;;;;;;1.27;100.00;96771.21;109854;1279;22341;-88
2024/04/22 07:20:11;;;;;;;;;;;;;;;1.32;100.00;96771.48;109812;1273;22442;-88
2024/04/22 07:22:39;;;;;;;;;;;;;;;1.40;100.00;96769.16;109388;1284;125351;-88
2024/04/22 07:25:05;;;;;;;;;;;;;;;1.46;100.00;96771.40;108345;1284;24512;-87
2024/04/22 07:27:32;;;;;;;;;;;;;;;1.53;100.00;96771.96;108350;1280;124956;-88
2024/04/22 07:29:59;;;;;;;;;;;;;;;1.54;100.00;96776.96;108399;1278;22538;-88
2024/04/22 07:32:26;;;;;;;;;;;;;;;1.57;100.00;96777.96;108436;1284;22531;-87
2024/04/22 07:34:52;;;;;;;;;;;;;;;1.59;100.00;96777.09;108268;1280;125270;-88
2024/04/22 07:37:20;;;;;;;;;;;;;;;1.60;100.00;96778.91;108408;1284;22943;-88
2024/04/22 07:39:46;;;;;;;;;;;;;;;1.65;100.00;96782.15;108345;1277;125248;-88
2024/04/22 07:42:12;;;;;;;;;;;;;;;1.68;100.00;96784.14;108457;1277;22530;-88
2024/04/22 07:44:39;;;;;;;;;;;;;;;1.69;100.00;96785.55;108408;1279;22659;-88
2024/04/22 07:47:05;;;;;;;;;;;;;;;1.69;100.00;96789.52;108284;1284;125235;-88
2024/04/22 07:49:31;;;;;;;;;;;;;;;1.69;100.00;96791.41;108412;1283;22557;-89
2024/04/22 07:51:57;;;;;;;;;;;;;;;1.70;100.00;96790.77;108279;1271;125290;-88
2024/04/22 07:54:24;;;;;;;;;;;;;;;1.70;100.00;96791.28;108464;1261;22542;-88
2024/04/22 07:56:50;;;;;;;;;;;;;;;1.73;100.00;96793.98;108335;1278;125184;-88
2024/04/22 07:59:18;;;;;;;;;;;;;;;1.77;100.00;96795.88;108442;1280;22567;-88
2024/04/22 08:01:45;;;;;;;;;;;;;;;1.78;100.00;96799.20;108366;1281;22584;-87
2024/04/22 08:04:12;;;;;;;;;;;;;;;1.81;100.00;96798.33;108234;1284;125075;-88
2024/04/22 08:06:39;;;;;;;;;;;;;;;1.85;100.00;96800.60;108356;1280;22653;-88
2024/04/22 08:09:05;;;;;;;;;;;;;;;1.83;100.00;96803.50;108350;1278;125140;-88
2024/04/22 08:11:32;;;;;;;;;;;;;;;1.80;100.00;96799.21;108352;1280;22515;-87
2024/04/22 08:13:58;;;;;;;;;;;;;;;1.84;100.00;96804.10;108422;1284;22606;-88
2024/04/22 08:16:25;;;;;;;;;;;;;;;1.85;100.00;96805.56;108298;1280;124986;-88
2024/04/22 08:18:51;;;;;;;;;;;;;;;1.90;100.00;96807.52;108445;1277;22506;-87
2024/04/22 08:21:18;;;;;;;;;;;;;;;1.94;100.00;96806.73;108332;1278;125071;-88
2024/04/22 08:23:44;;;;;;;;;;;;;;;1.98;100.00;96806.27;108487;1284;24245;-87
2024/04/22 08:26:10;;;;;;;;;;;;;;;2.00;100.00;96807.30;108408;1277;24210;-87
2024/04/22 08:28:36;;;;;;;;;;;;;;;2.04;100.00;96808.69;108371;1277;125074;-88
2024/04/22 08:31:04;;;;;;;;;;;;;;;2.05;100.00;96810.31;108457;1284;24196;-87
2024/04/22 08:33:30;;;;;;;;;;;;;;;2.05;100.00;96812.55;108293;1284;125784;-88
2024/04/22 08:35:56;;;;;;;;;;;;;;;2.00;100.00;96815.15;108448;1284;25223;-87
2024/04/22 08:38:23;;;;;;;;;;;;;;;1.92;100.00;96815.27;108387;1280;25409;-87
2024/04/22 08:40:49;;;;;;;;;;;;;;;1.87;100.00;96819.38;108383;1276;124914;-88
2024/04/22 08:43:16;;;;;;;;;;;;;;;1.88;100.00;96815.04;108485;1274;22578;-87
2024/04/22 08:45:43;;;;;;;;;;;;;;;1.90;100.00;96819.30;108337;1277;125006;-88
2024/04/22 08:48:09;;;;;;;;;;;;;;;1.88;100.00;96822.02;108468;1280;23862;-88
2024/04/22 08:50:39;;;;;;;;;;;;;;;1.90;100.00;96823.79;108463;1284;22488;-87
2024/04/22 08:53:09;;;;;;;;;;;;;;;1.97;100.00;96824.80;108466;1278;22532;-87
2024/04/22 08:55:35;;;;;;;;;;;;;;;1.99;100.00;96825.83;108435;1284;22579;-87
2024/04/22 08:58:03;;;;;;;;;;;;;;;2.00;100.00;96825.89;108360;1284;124954;-87
2024/04/22 09:00:29;;;;;;;;;;;;;;;2.01;100.00;96826.52;108406;1281;22513;-87
2024/04/22 09:02:55;;;;;;;;;;;;;;;2.02;100.00;96831.23;108291;1284;125128;-87
2024/04/22 09:05:22;;;;;;;;;;;;;;;2.02;100.00;96835.27;108413;1284;22548;-87
2024/04/22 09:07:55;;;;;;;;;;;;;;;1.95;100.00;96838.56;108474;1284;22672;-87
2024/04/22 09:10:24;;;;;;;;;;;;;;;1.88;100.00;96838.27;108294;1284;125040;-87
2024/04/22 09:13:00;;;;;;;;;;;;;;;1.90;100.00;96842.00;108399;1280;22463;-88
2024/04/22 09:15:27;;;;;;;;;;;;;;;1.92;100.00;96842.40;108402;1284;124918;-87
2024/04/22 09:17:54;;;;;;;;;;;;;;;1.92;100.00;96844.94;108423;1284;22534;-87
2024/04/22 09:20:21;;;;;;;;;;;;;;;1.90;100.00;96843.56;108520;1284;25195;-87
2024/04/22 09:22:48;;;;;;;;;;;;;;;1.94;100.00;96845.86;108318;1284;124988;-87
2024/04/22 09:25:14;;;;;;;;;;;;;;;1.99;100.00;96850.23;108355;1284;22554;-87
2024/04/22 09:27:43;;;;;;;;;;;;;;;2.00;100.00;96855.44;108459;1284;125000;-87
2024/04/22 09:30:10;;;;;;;;;;;;;;;1.95;100.00;96857.20;108478;1281;22530;-87
2024/04/22 09:32:36;;;;;;;;;;;;;;;1.88;100.00;96855.50;108419;1284;22538;-88
2024/04/22 09:35:22;;;;;;;;;;;;;;;1.86;100.00;96860.45;108404;1284;124847;-88
2024/04/22 09:37:49;;;;;;;;;;;;;;;1.83;100.00;96858.66;108396;1278;22506;-88
2024/04/22 09:40:16;;;;;;;;;;;;;;;1.85;100.00;96855.41;108369;1277;125025;-87
2024/04/22 09:42:43;;;;;;;;;;;;;;;1.90;100.00;96854.35;108412;1281;22449;-87
2024/04/22 09:45:09;;;;;;;;;;;;;;;1.97;100.00;96855.02;108389;1266;125421;-87
2024/04/22 09:47:37;;;;;;;;;;;;;;;1.94;100.00;96854.89;108499;1281;23310;-87
2024/04/22 09:50:03;;;;;;;;;;;;;;;1.96;100.00;96851.86;108404;1283;22567;-87
2024/04/22 09:52:33;;;;;;;;;;;;;;;2.02;100.00;96847.07;108286;1271;125209;-88
2024/04/22 09:55:02;;;;;;;;;;;;;;;2.09;100.00;96849.28;108366;1284;22622;-88
2024/04/22 09:57:32;;;;;;;;;;;;;;;2.10;100.00;96845.61;108420;1283;125002;-88
2024/04/22 10:00:01;;;;;;;;;;;;;;;2.18;100.00;96845.70;108489;1284;23226;-88
2024/04/22 10:02:28;;;;;;;;;;;;;;;2.25;100.00;96841.73;108366;1280;22533;-88
2024/04/22 10:04:54;;;;;;;;;;;;;;;2.29;100.00;96841.29;108394;1284;124935;-88
2024/04/22 10:07:21;;;;;;;;;;;;;;;2.32;100.00;96841.16;108391;1284;23234;-88
2024/04/22 10:09:50;;;;;;;;;;;;;;;2.37;100.00;96841.83;108358;1281;125161;-87
2024/04/22 10:12:26;;;;;;;;;;;;;;;2.40;100.00;96837.98;108432;1281;23328;-88
2024/04/22 10:15:05;;;;;;;;;;;;;;;2.43;100.00;96837.45;108387;1277;125540;-87
2024/04/22 10:17:33;;;;;;;;;;;;;;;2.49;100.00;96837.64;108387;1283;22503;-88
2024/04/22 10:19:59;;;;;;;;;;;;;;;2.52;100.00;96839.84;108353;1277;191031;-88
2024/04/22 10:22:32;;;;;;;;;;;;;;;2.60;100.00;96836.11;109005;1277;125059;-88
2024/04/22 10:24:58;;;;;;;;;;;;;;;2.69;100.00;96833.46;108405;1283;22535;-88
2024/04/22 10:27:25;;;;;;;;;;;;;;;2.67;100.00;96835.04;108370;1278;125485;-87
2024/04/22 10:29:51;;;;;;;;;;;;;;;2.64;100.00;96835.05;108369;1280;24253;-87
2024/04/22 10:32:17;;;;;;;;;;;;;;;2.68;100.00;96840.21;108454;1277;22554;-88
2024/04/22 10:34:44;;;;;;;;;;;;;;;2.74;100.00;96836.99;108369;1284;125216;-88
2024/04/22 10:37:11;;;;;;;;;;;;;;;2.91;100.00;96828.98;108456;1273;22531;-88
2024/04/22 10:39:37;;;;;;;;;;;;;;;3.09;100.00;96828.23;108372;1284;124905;-88
2024/04/22 10:42:04;;;;;;;;;;;;;;;3.16;100.00;96826.98;108368;1279;24571;-88
2024/04/22 10:44:30;;;;;;;;;;;;;;;3.18;100.00;96822.98;108425;1284;22516;-88
2024/04/22 10:46:57;;;;;;;;;;;;;;;3.21;100.00;96824.27;108322;1278;125258;-88
2024/04/22 10:49:26;;;;;;;;;;;;;;;3.24;100.00;96822.87;108442;1274;22655;-88
2024/04/22 10:51:52;;;;;;;;;;;;;;;3.25;100.00;96824.15;108370;1284;125282;-87
2024/04/22 10:54:19;;;;;;;;;;;;;;;3.17;100.00;96827.02;108449;1284;22519;-88
2024/04/22 10:56:45;;;;;;;;;;;;;;;3.20;100.00;96824.52;108310;1283;125111;-88
2024/04/22 10:59:11;;;;;;;;;;;;;;;3.21;100.00;96824.30;108424;1280;22519;-88
2024/04/22 11:01:38;;;;;;;;;;;;;;;3.16;99.89;96824.70;108415;1276;22527;-88
2024/04/22 11:04:04;;;;;;;;;;;;;;;3.13;100.00;96829.27;108320;1277;124832;-88
2024/04/22 11:06:30;;;;;;;;;;;;;;;3.09;100.00;96831.95;108412;1281;22523;-88
2024/04/22 11:08:56;;;;;;;;;;;;;;;3.10;100.00;96826.91;108349;1277;125186;-88
2024/04/22 11:11:23;;;;;;;;;;;;;;;3.12;100.00;96830.35;108441;1281;22553;-88
2024/04/22 11:13:49;;;;;;;;;;;;;;;3.10;100.00;96829.66;108421;1283;22514;-88
2024/04/22 11:16:16;;;;;;;;;;;;;;;3.15;100.00;96823.13;109180;1284;125352;-88
2024/04/22 11:18:42;;;;;;;;;;;;;;;3.23;100.00;96821.20;109101;1282;23841;-88
2024/04/22 11:21:08;;;;;;;;;;;;;;;3.31;100.00;96824.70;108235;1278;125258;-88
2024/04/22 11:23:35;;;;;;;;;;;;;;;3.35;100.00;96826.25;108353;1278;22519;-87
2024/04/22 11:26:01;;;;;;;;;;;;;;;3.33;100.00;96828.32;108428;1284;22554;-88
2024/04/22 11:28:27;;;;;;;;;;;;;;;3.31;100.00;96830.83;108392;1276;125448;-88
2024/04/22 11:30:53;;;;;;;;;;;;;;;3.31;100.00;96830.31;108443;1284;22538;-88
2024/04/22 11:33:23;;;;;;;;;;;;;;;3.31;99.51;96828.61;108209;1282;125171;-88
2024/04/22 11:35:50;;;;;;;;;;;;;;;3.28;99.49;96826.98;108376;1280;25377;-88
2024/04/22 11:38:16;;;;;;;;;;;;;;;3.25;98.46;96828.44;108419;1284;22534;-88
2024/04/22 11:40:44;;;;;;;;;;;;;;;3.17;98.82;96828.44;108317;1284;124845;-88
2024/04/22 11:43:11;;;;;;;;;;;;;;;3.18;98.98;96828.83;108443;1278;22535;-89
2024/04/22 11:45:37;;;;;;;;;;;;;;;3.23;98.66;96827.20;108308;1281;125485;-88
2024/04/22 11:48:04;;;;;;;;;;;;;;;3.30;99.06;96831.64;108423;1277;22546;-88
2024/04/22 11:50:30;;;;;;;;;;;;;;;3.35;95.99;96830.34;108390;1280;22510;-88
2024/04/22 11:52:56;;;;;;;;;;;;;;;3.39;98.71;96826.45;108372;1277;124685;-88
2024/04/22 11:55:23;;;;;;;;;;;;;;;3.47;100.00;96824.60;108443;1282;22542;-89
2024/04/22 11:57:49;;;;;;;;;;;;;;;3.56;98.14;96822.80;108340;1276;125024;-89
2024/04/22 12:00:15;;;;;;;;;;;;;;;3.57;96.62;96821.80;108441;1278;22543;-88
2024/04/22 12:02:41;;;;;;;;;;;;;;;3.59;95.97;96822.91;108364;1276;124978;-88
2024/04/22 12:05:12;;;;;;;;;;;;;;;3.58;95.22;96821.05;108432;1281;22492;-88
2024/04/22 12:07:42;;;;;;;;;;;;;;;3.63;97.47;96820.14;108421;1284;22535;-88
2024/04/22 12:10:11;;;;;;;;;;;;;;;3.71;99.65;96814.86;108295;1284;124772;-88
2024/04/22 12:12:38;;;;;;;;;;;;;;;3.77;100.00;96811.98;108432;1284;22511;-87
2024/04/22 12:15:05;;;;;;;;;;;;;;;3.77;99.66;96810.39;108355;1281;125367;-88
2024/04/22 12:17:31;;;;;;;;;;;;;;;3.80;98.58;96812.38;108430;1284;23878;-88
2024/04/22 12:19:58;;;;;;;;;;;;;;;3.79;98.06;96816.02;108429;1278;22522;-88
2024/04/22 12:22:24;;;;;;;;;;;;;;;3.86;97.64;96817.11;108244;1277;124911;-88
2024/04/22 12:24:50;;;;;;;;;;;;;;;3.91;95.78;96818.94;108394;1284;22540;-87
2024/04/22 12:27:16;;;;;;;;;;;;;;;3.97;97.02;96821.52;108308;1284;125488;-88
2024/04/22 12:29:43;;;;;;;;;;;;;;;4.02;96.18;96823.67;108428;1284;22537;-88
2024/04/22 12:32:09;;;;;;;;;;;;;;;4.03;94.44;96829.25;108435;1277;22553;-88
2024/04/22 12:34:36;;;;;;;;;;;;;;;4.03;93.77;96828.60;108331;1274;124796;-88
2024/04/22 12:37:02;;;;;;;;;;;;;;;4.02;93.23;96823.86;108399;1280;22535;-89